createdAt,value
2019-01-27T00:01:07.794Z,0.88
2019-01-27T00:03:36.439Z,0.87
2019-01-27T00:06:05.082Z,0.88
2019-01-27T00:08:34.422Z,0.88
2019-01-27T00:11:03.444Z,0.90
2019-01-27T00:13:32.134Z,0.88
2019-01-27T00:16:00.787Z,0.88
2019-01-27T00:18:29.529Z,0.85
2019-01-27T00:20:58.224Z,0.82
2019-01-27T00:23:26.919Z,0.86
2019-01-27T00:25:55.551Z,0.81
2019-01-27T00:28:24.186Z,0.77
2019-01-27T00:30:52.913Z,0.73
2019-01-27T00:33:21.626Z,0.71
2019-01-27T00:35:50.271Z,0.66
2019-01-27T00:38:18.931Z,0.69
2019-01-27T00:40:47.627Z,0.73
2019-01-27T00:43:16.270Z,0.74
2019-01-27T00:45:45.339Z,0.78
2019-01-27T00:48:13.973Z,0.79
2019-01-27T00:50:42.952Z,0.78
2019-01-27T00:53:11.586Z,0.75
2019-01-27T00:55:41.202Z,0.74
2019-01-27T00:58:09.847Z,0.70
2019-01-27T01:00:38.700Z,0.66
2019-01-27T01:03:07.678Z,0.72
2019-01-27T01:05:36.820Z,0.73
2019-01-27T01:08:06.424Z,0.64
2019-01-27T01:10:35.054Z,0.66
2019-01-27T01:13:03.974Z,0.60
2019-01-27T01:15:32.705Z,0.55
2019-01-27T01:18:01.354Z,0.54
2019-01-27T01:20:29.989Z,0.57
2019-01-27T01:22:58.671Z,0.56
2019-01-27T01:25:27.687Z,0.59
2019-01-27T01:27:56.325Z,0.56
2019-01-27T01:30:26.028Z,0.55
2019-01-27T01:32:54.747Z,0.59
2019-01-27T01:35:23.458Z,0.56
2019-01-27T01:37:52.182Z,0.58
2019-01-27T01:40:20.849Z,0.65
2019-01-27T01:42:49.484Z,0.63
2019-01-27T01:45:19.373Z,0.64
2019-01-27T01:47:48.091Z,0.65
2019-01-27T01:50:16.931Z,0.62
2019-01-27T01:52:45.988Z,0.65
2019-01-27T01:55:14.978Z,0.62
2019-01-27T01:57:43.658Z,0.60
2019-01-27T02:00:14.142Z,0.58
2019-01-27T02:02:42.945Z,0.56
2019-01-27T02:05:11.718Z,0.57
2019-01-27T02:07:40.358Z,0.60
2019-01-27T02:10:10.110Z,0.62
2019-01-27T02:12:38.742Z,0.68
2019-01-27T02:15:12.262Z,0.68
2019-01-27T02:17:40.894Z,0.71
2019-01-27T02:20:09.568Z,0.78
2019-01-27T02:22:38.223Z,0.74
2019-01-27T02:25:06.876Z,0.77
2019-01-27T02:27:35.787Z,0.84
2019-01-27T02:30:05.032Z,0.84
2019-01-27T02:32:34.811Z,0.88
2019-01-27T02:35:03.527Z,0.87
2019-01-27T02:37:32.187Z,0.90
2019-01-27T02:40:01.507Z,0.91
2019-01-27T02:42:30.519Z,0.89
2019-01-27T02:44:59.167Z,0.91
2019-01-27T02:47:27.799Z,0.93
2019-01-27T02:49:56.453Z,0.95
2019-01-27T02:52:25.143Z,0.93
2019-01-27T02:54:53.775Z,0.98
2019-01-27T02:57:22.405Z,0.98
2019-01-27T02:59:52.792Z,1.02
2019-01-27T03:02:21.794Z,1.02
2019-01-27T03:04:50.430Z,0.97
2019-01-27T03:07:35.927Z,0.94
2019-01-27T03:10:06.528Z,0.97
2019-01-27T03:12:35.194Z,0.89
2019-01-27T03:15:04.373Z,0.81
2019-01-27T03:17:33.028Z,0.79
2019-01-27T03:20:01.676Z,0.72
2019-01-27T03:22:30.385Z,0.66
2019-01-27T03:24:59.030Z,0.57
2019-01-27T03:27:27.663Z,0.48
2019-01-27T03:29:56.307Z,0.40
2019-01-27T03:32:24.966Z,0.37
2019-01-27T03:34:53.904Z,0.35
2019-01-27T03:37:22.543Z,0.31
2019-01-27T03:39:51.293Z,0.31
2019-01-27T03:42:20.189Z,0.31
2019-01-27T03:44:49.465Z,0.37
2019-01-27T03:47:18.119Z,0.39
2019-01-27T03:49:47.101Z,0.42
2019-01-27T03:52:15.743Z,0.41
2019-01-27T03:54:44.379Z,0.43
2019-01-27T03:57:13.108Z,0.45
2019-01-27T03:59:41.774Z,0.48
2019-01-27T04:02:11.427Z,0.52
2019-01-27T04:04:40.063Z,0.55
2019-01-27T04:07:08.786Z,0.51
2019-01-27T04:09:37.715Z,0.47
2019-01-27T04:12:06.434Z,0.42
2019-01-27T04:14:36.154Z,0.36
2019-01-27T04:17:04.844Z,0.30
2019-01-27T04:19:33.557Z,0.14
2019-01-27T04:22:02.277Z,0.00
2019-01-27T04:24:30.998Z,0.02
2019-01-27T04:26:59.652Z,-0.09
2019-01-27T04:29:28.316Z,-0.17
2019-01-27T04:31:56.972Z,-0.26
2019-01-27T04:34:26.292Z,-0.25
2019-01-27T04:36:54.982Z,-0.25
2019-01-27T04:39:23.650Z,-0.19
2019-01-27T04:41:52.305Z,-0.18
2019-01-27T04:44:20.956Z,-0.16
2019-01-27T04:46:49.615Z,-0.19
2019-01-27T04:49:18.321Z,-0.19
2019-01-27T04:51:46.957Z,-0.22
2019-01-27T04:54:15.615Z,-0.22
2019-01-27T04:56:44.263Z,-0.26
2019-01-27T04:59:12.911Z,-0.28
2019-01-27T05:01:41.706Z,-0.35
2019-01-27T05:04:21.355Z,-0.42
2019-01-27T05:06:50.286Z,-0.45
2019-01-27T05:09:19.074Z,-0.50
2019-01-27T05:11:47.813Z,-0.52
2019-01-27T05:14:16.490Z,-0.55
2019-01-27T05:16:45.140Z,-0.51
2019-01-27T05:19:13.766Z,-0.56
2019-01-27T05:21:42.424Z,-0.63
2019-01-27T05:24:11.322Z,-0.54
2019-01-27T05:26:40.052Z,-0.52
2019-01-27T05:29:08.709Z,-0.39
2019-01-27T05:31:37.436Z,-0.35
2019-01-27T05:34:06.087Z,-0.28
2019-01-27T05:36:34.747Z,-0.25
2019-01-27T05:39:05.685Z,-0.19
2019-01-27T05:41:34.329Z,-0.10
2019-01-27T05:44:03.308Z,-0.07
2019-01-27T05:46:31.982Z,-0.03
2019-01-27T05:49:00.692Z,-0.04
2019-01-27T05:51:29.351Z,-0.02
2019-01-27T05:53:58.006Z,-0.03
2019-01-27T05:56:26.660Z,-0.02
2019-01-27T05:58:55.307Z,-0.02
2019-01-27T06:01:24.719Z,-0.02
2019-01-27T06:03:53.395Z,-0.01
2019-01-27T06:06:22.074Z,0.04
2019-01-27T06:08:50.719Z,0.07
2019-01-27T06:11:19.362Z,0.14
2019-01-27T06:13:48.080Z,0.19
2019-01-27T06:16:16.721Z,0.14
2019-01-27T06:18:45.383Z,0.15
2019-01-27T06:21:14.019Z,0.10
2019-01-27T06:23:42.665Z,0.01
2019-01-27T06:26:11.324Z,-0.05
2019-01-27T06:28:39.990Z,-0.10
2019-01-27T06:31:08.640Z,-0.12
2019-01-27T06:34:05.306Z,-0.10
2019-01-27T06:36:33.943Z,-0.08
2019-01-27T06:39:02.600Z,-0.04
2019-01-27T06:41:32.428Z,-0.01
2019-01-27T06:44:01.079Z,-0.07
2019-01-27T06:46:30.686Z,-0.05
2019-01-27T06:48:59.339Z,-0.11
2019-01-27T06:51:27.991Z,-0.17
2019-01-27T06:53:56.710Z,-0.21
2019-01-27T06:56:25.375Z,-0.24
2019-01-27T06:59:12.039Z,-0.25
2019-01-27T07:01:48.582Z,-0.29
2019-01-27T07:04:25.991Z,-0.25
2019-01-27T07:07:25.961Z,-0.30
2019-01-27T07:10:03.051Z,-0.37
2019-01-27T07:12:39.683Z,-0.38
2019-01-27T07:15:44.347Z,-0.45
2019-01-27T07:18:22.427Z,-0.42
2019-01-27T07:21:00.111Z,-0.30
2019-01-27T07:23:45.021Z,-0.25
2019-01-27T07:26:32.184Z,-0.19
2019-01-27T07:29:38.294Z,-0.09
2019-01-27T07:32:15.286Z,0.04
2019-01-27T07:35:03.964Z,0.07
2019-01-27T07:37:45.464Z,0.15
2019-01-27T07:40:31.975Z,0.25
2019-01-27T07:43:19.688Z,0.35
2019-01-27T07:45:57.300Z,0.46
2019-01-27T07:48:33.768Z,0.57
2019-01-27T07:51:09.826Z,0.74
2019-01-27T07:54:00.554Z,0.74
2019-01-27T07:56:54.185Z,0.82
2019-01-27T07:59:30.966Z,0.90
2019-01-27T08:02:17.629Z,0.96
2019-01-27T08:04:58.755Z,1.04
2019-01-27T08:07:46.811Z,1.21
2019-01-27T08:10:31.187Z,1.29
2019-01-27T08:13:37.353Z,1.28
2019-01-27T08:16:25.076Z,1.31
2019-01-27T08:19:12.879Z,1.21
2019-01-27T08:21:59.311Z,1.18
2019-01-27T08:24:49.799Z,1.11
2019-01-27T08:27:30.436Z,1.03
2019-01-27T08:30:17.155Z,0.94
2019-01-27T08:33:07.659Z,1.02
2019-01-27T08:36:04.379Z,1.05
2019-01-27T08:38:45.055Z,1.16
2019-01-27T08:41:26.039Z,1.29
2019-01-27T08:44:16.798Z,1.45
2019-01-27T08:46:49.830Z,1.81
2019-01-27T08:49:18.526Z,2.13
2019-01-27T08:51:47.266Z,2.72
2019-01-27T08:54:15.924Z,3.01
2019-01-27T08:56:44.564Z,3.11
2019-01-27T08:59:13.272Z,3.21
2019-01-27T09:02:13.142Z,3.13
2019-01-27T09:04:54.981Z,3.26
2019-01-27T09:07:41.338Z,3.48
2019-01-27T09:10:31.646Z,3.67
2019-01-27T09:13:21.883Z,3.85
2019-01-27T09:16:03.936Z,3.84
2019-01-27T09:19:04.114Z,3.92
2019-01-27T09:21:54.765Z,3.95
2019-01-27T09:24:46.291Z,4.14
2019-01-27T09:27:22.047Z,4.14
2019-01-27T09:29:55.659Z,4.19
2019-01-27T09:32:33.543Z,4.54
2019-01-27T09:35:28.706Z,4.76
2019-01-27T09:38:14.751Z,4.68
2019-01-27T09:40:54.498Z,4.93
2019-01-27T09:43:41.110Z,4.89
2019-01-27T09:46:34.694Z,4.88
2019-01-27T09:49:25.430Z,4.62
2019-01-27T09:52:01.119Z,4.49
2019-01-27T09:54:58.175Z,4.38
2019-01-27T09:57:55.256Z,4.39
2019-01-27T10:00:32.998Z,4.52
2019-01-27T10:03:10.418Z,5.09
2019-01-27T10:05:51.584Z,4.80
2019-01-27T10:08:27.654Z,4.94
2019-01-27T10:11:08.402Z,5.29
2019-01-27T10:13:56.136Z,5.57
2019-01-27T10:16:33.160Z,5.70
2019-01-27T10:19:30.187Z,5.69
2019-01-27T10:22:08.692Z,5.51
2019-01-27T10:24:48.155Z,5.62
2019-01-27T10:27:24.901Z,5.86
2019-01-27T10:30:21.487Z,5.38
2019-01-27T10:32:56.167Z,5.37
2019-01-27T10:35:50.983Z,5.16
2019-01-27T10:38:45.503Z,5.28
2019-01-27T10:41:33.331Z,5.51
2019-01-27T10:44:15.706Z,5.51
2019-01-27T10:47:06.385Z,5.56
2019-01-27T10:50:06.342Z,5.36
2019-01-27T10:53:00.722Z,5.22
2019-01-27T10:55:53.254Z,4.89
2019-01-27T10:58:44.131Z,4.95
2019-01-27T11:01:47.682Z,4.99
2019-01-27T11:04:29.704Z,5.11
2019-01-27T11:07:09.086Z,5.09
2019-01-27T11:09:59.898Z,5.11
2019-01-27T11:12:38.832Z,5.18
2019-01-27T11:15:26.244Z,5.17
2019-01-27T11:18:02.862Z,5.75
2019-01-27T11:20:49.816Z,5.68
2019-01-27T11:23:40.558Z,5.70
2019-01-27T11:26:31.211Z,5.72
2019-01-27T11:29:31.182Z,5.65
2019-01-27T11:32:17.959Z,5.16
2019-01-27T11:35:16.225Z,5.47
2019-01-27T11:37:59.903Z,5.67
2019-01-27T11:40:56.907Z,6.15
2019-01-27T11:43:44.706Z,6.05
2019-01-27T11:46:19.191Z,6.01
2019-01-27T11:49:07.026Z,6.18
2019-01-27T11:52:01.646Z,6.05
2019-01-27T11:54:30.331Z,6.13
2019-01-27T11:56:59.054Z,6.23
2019-01-27T11:59:28.080Z,6.11
2019-01-27T12:01:56.846Z,6.44
2019-01-27T12:04:25.484Z,6.41
2019-01-27T12:06:54.152Z,6.71
2019-01-27T12:09:22.834Z,6.81
2019-01-27T12:11:51.493Z,6.62
2019-01-27T12:14:21.058Z,6.36
2019-01-27T12:16:49.705Z,6.30
2019-01-27T12:19:18.342Z,6.31
2019-01-27T12:21:46.970Z,6.62
2019-01-27T12:24:15.609Z,6.35
2019-01-27T12:26:44.252Z,6.50
2019-01-27T12:29:12.966Z,6.62
2019-01-27T12:31:41.605Z,6.53
2019-01-27T12:34:10.605Z,6.26
2019-01-27T12:36:39.255Z,6.83
2019-01-27T12:39:09.223Z,6.74
2019-01-27T12:41:38.231Z,6.44
2019-01-27T12:44:07.554Z,6.70
2019-01-27T12:46:36.195Z,6.53
2019-01-27T12:49:05.939Z,6.72
2019-01-27T12:51:34.590Z,6.63
2019-01-27T12:54:03.315Z,6.49
2019-01-27T12:56:32.043Z,6.33
2019-01-27T12:59:00.984Z,6.02
2019-01-27T13:01:29.998Z,6.26
2019-01-27T13:03:59.030Z,5.70
2019-01-27T13:06:27.730Z,5.96
2019-01-27T13:08:56.384Z,6.05
2019-01-27T13:11:25.022Z,6.12
2019-01-27T13:13:53.720Z,6.38
2019-01-27T13:16:22.390Z,6.51
2019-01-27T13:18:51.018Z,6.39
2019-01-27T13:21:19.972Z,6.45
2019-01-27T13:23:48.617Z,6.80
2019-01-27T13:26:17.255Z,7.41
2019-01-27T13:28:45.965Z,7.49
2019-01-27T13:31:15.955Z,7.11
2019-01-27T13:33:44.587Z,6.37
2019-01-27T13:36:13.331Z,5.87
2019-01-27T13:38:41.975Z,5.59
2019-01-27T13:41:10.949Z,5.66
2019-01-27T13:43:39.593Z,5.82
2019-01-27T13:46:08.239Z,5.77
2019-01-27T13:48:36.875Z,6.25
2019-01-27T13:51:05.859Z,6.03
2019-01-27T13:53:34.513Z,5.73
2019-01-27T13:56:03.222Z,5.58
2019-01-27T13:58:31.929Z,5.50
2019-01-27T14:01:00.575Z,5.38
2019-01-27T14:03:30.291Z,5.45
2019-01-27T14:05:58.954Z,5.37
2019-01-27T14:08:27.678Z,5.33
2019-01-27T14:10:56.650Z,4.93
2019-01-27T14:13:25.295Z,4.84
2019-01-27T14:15:53.968Z,4.79
2019-01-27T14:18:22.700Z,4.67
2019-01-27T14:20:51.333Z,4.57
2019-01-27T14:23:20.076Z,4.53
2019-01-27T14:25:48.718Z,4.62
2019-01-27T14:28:17.356Z,4.64
2019-01-27T14:30:46.016Z,4.96
2019-01-27T14:33:14.917Z,4.73
2019-01-27T14:35:43.815Z,4.81
2019-01-27T14:38:12.610Z,4.71
2019-01-27T14:40:41.607Z,4.68
2019-01-27T14:43:10.907Z,4.74
2019-01-27T14:45:39.639Z,4.77
2019-01-27T14:48:08.355Z,4.81
2019-01-27T14:50:38.487Z,4.59
2019-01-27T14:53:07.739Z,4.53
2019-01-27T14:55:36.379Z,4.52
2019-01-27T14:58:05.263Z,4.52
2019-01-27T15:00:36.692Z,4.46
2019-01-27T15:03:05.999Z,4.38
2019-01-27T15:05:34.804Z,4.30
2019-01-27T15:08:03.493Z,4.22
2019-01-27T15:10:32.182Z,4.32
2019-01-27T15:13:00.860Z,4.29
2019-01-27T15:15:29.507Z,4.34
2019-01-27T15:17:58.148Z,4.20
2019-01-27T15:20:28.352Z,4.14
2019-01-27T15:22:57.003Z,4.22
2019-01-27T15:25:25.714Z,4.15
2019-01-27T15:27:54.425Z,3.77
2019-01-27T15:30:24.224Z,3.49
2019-01-27T15:32:53.032Z,3.34
2019-01-27T15:35:22.187Z,3.34
2019-01-27T15:37:51.095Z,3.25
2019-01-27T15:40:20.126Z,3.33
2019-01-27T15:42:49.103Z,3.06
2019-01-27T15:45:21.715Z,2.85
2019-01-27T15:47:50.365Z,2.77
2019-01-27T15:50:19.853Z,2.73
2019-01-27T15:52:48.491Z,2.76
2019-01-27T15:55:17.574Z,2.69
2019-01-27T15:57:46.543Z,2.67
2019-01-27T16:00:16.427Z,2.57
2019-01-27T16:02:46.644Z,2.51
2019-01-27T16:05:16.487Z,2.47
2019-01-27T16:07:45.153Z,2.52
2019-01-27T16:10:14.775Z,2.47
2019-01-27T16:12:43.692Z,2.41
2019-01-27T16:15:13.450Z,2.39
2019-01-27T16:17:42.342Z,2.38
2019-01-27T16:20:11.230Z,2.59
2019-01-27T16:22:39.856Z,2.62
2019-01-27T16:25:09.206Z,2.56
2019-01-27T16:27:37.951Z,2.47
2019-01-27T16:30:22.717Z,2.41
2019-01-27T16:32:59.074Z,2.41
2019-01-27T16:35:28.302Z,2.28
2019-01-27T16:37:57.014Z,2.18
2019-01-27T16:40:25.655Z,2.03
2019-01-27T16:42:54.367Z,2.00
2019-01-27T16:45:23.071Z,1.91
2019-01-27T16:47:51.725Z,1.94
2019-01-27T16:50:20.515Z,2.08
2019-01-27T16:52:49.457Z,2.03
2019-01-27T16:55:18.096Z,2.06
2019-01-27T16:57:46.751Z,2.12
2019-01-27T17:00:17.343Z,2.21
2019-01-27T17:02:46.461Z,2.39
2019-01-27T17:05:15.492Z,2.38
2019-01-27T17:07:44.211Z,2.33
2019-01-27T17:10:13.114Z,2.47
2019-01-27T17:12:42.021Z,2.59
2019-01-27T17:15:10.996Z,2.63
2019-01-27T17:17:39.792Z,2.52
2019-01-27T17:20:10.330Z,2.43
2019-01-27T17:22:39.324Z,2.23
2019-01-27T17:25:08.682Z,2.33
2019-01-27T17:27:38.486Z,2.28
2019-01-27T17:30:08.762Z,2.25
2019-01-27T17:32:37.732Z,2.21
2019-01-27T17:35:07.252Z,2.15
2019-01-27T17:37:36.037Z,1.98
2019-01-27T17:40:05.239Z,1.87
2019-01-27T17:42:33.866Z,1.82
2019-01-27T17:45:02.512Z,1.76
2019-01-27T17:47:31.623Z,1.79
2019-01-27T17:50:01.256Z,1.70
2019-01-27T17:52:31.612Z,1.65
2019-01-27T17:55:00.259Z,1.57
2019-01-27T17:57:40.403Z,1.47
2019-01-27T18:00:28.359Z,1.58
2019-01-27T18:03:03.091Z,1.57
2019-01-27T18:05:40.208Z,1.56
2019-01-27T18:08:18.027Z,1.51
2019-01-27T18:10:51.683Z,1.51
2019-01-27T18:13:40.167Z,1.53
2019-01-27T18:16:12.912Z,1.43
2019-01-27T18:18:42.441Z,1.38
2019-01-27T18:21:11.085Z,1.40
2019-01-27T18:23:39.962Z,1.32
2019-01-27T18:26:09.152Z,1.23
2019-01-27T18:28:38.211Z,1.23
2019-01-27T18:31:06.848Z,1.38
2019-01-27T18:33:35.895Z,1.24
2019-01-27T18:36:05.312Z,1.29
2019-01-27T18:38:34.227Z,1.10
2019-01-27T18:41:03.015Z,1.04
2019-01-27T18:43:31.698Z,0.96
2019-01-27T18:46:00.428Z,1.05
2019-01-27T18:48:29.090Z,1.19
2019-01-27T18:50:57.749Z,1.42
2019-01-27T18:53:34.332Z,1.34
2019-01-27T18:56:28.118Z,1.21
2019-01-27T18:59:03.459Z,1.17
2019-01-27T19:01:50.997Z,1.29
2019-01-27T19:04:37.935Z,1.36
2019-01-27T19:07:24.610Z,1.35
2019-01-27T19:10:18.487Z,1.29
2019-01-27T19:13:01.059Z,1.33
2019-01-27T19:16:01.033Z,1.35
2019-01-27T19:18:51.647Z,1.45
2019-01-27T19:21:39.347Z,1.61
2019-01-27T19:24:17.336Z,1.65
2019-01-27T19:27:03.898Z,1.72
2019-01-27T19:29:57.910Z,1.73
2019-01-27T19:32:45.646Z,1.73
2019-01-27T19:35:39.225Z,1.74
2019-01-27T19:38:36.274Z,1.73
2019-01-27T19:41:22.442Z,1.75
2019-01-27T19:44:16.182Z,1.86
2019-01-27T19:47:03.896Z,2.06
2019-01-27T19:49:49.394Z,2.21
2019-01-27T19:52:26.252Z,2.22
2019-01-27T19:55:17.851Z,2.23
2019-01-27T19:58:01.420Z,2.23
2019-01-27T20:00:48.069Z,2.28
2019-01-27T20:03:35.859Z,2.25
2019-01-27T20:06:24.429Z,2.31
2019-01-27T20:09:01.707Z,2.37
2019-01-27T20:11:54.035Z,2.41
2019-01-27T20:14:31.495Z,2.65
2019-01-27T20:17:10.057Z,2.86
2019-01-27T20:20:03.989Z,2.80
2019-01-27T20:22:58.026Z,2.79
2019-01-27T20:25:48.652Z,2.80
2019-01-27T20:28:42.498Z,2.83
2019-01-27T20:31:39.452Z,2.87
2019-01-27T20:34:19.200Z,2.80
2019-01-27T20:37:10.016Z,2.78
2019-01-27T20:39:44.264Z,2.72
2019-01-27T20:42:41.244Z,2.75
2019-01-27T20:45:30.035Z,2.66
2019-01-27T20:48:09.540Z,2.62
2019-01-27T20:51:15.502Z,2.61
2019-01-27T20:54:03.435Z,2.59
2019-01-27T20:56:41.623Z,2.52
2019-01-27T20:59:29.395Z,2.54
2019-01-27T21:02:08.311Z,2.57
2019-01-27T21:04:56.461Z,2.55
2019-01-27T21:07:49.123Z,2.56
2019-01-27T21:10:37.746Z,2.58
2019-01-27T21:13:22.644Z,2.57
2019-01-27T21:16:22.673Z,2.56
2019-01-27T21:18:56.362Z,2.63
2019-01-27T21:21:25.015Z,2.65
2019-01-27T21:23:53.755Z,2.69
2019-01-27T21:26:22.406Z,2.67
2019-01-27T21:28:51.127Z,2.65
2019-01-27T21:31:20.090Z,2.71
2019-01-27T21:33:48.739Z,2.68
2019-01-27T21:36:17.502Z,2.70
2019-01-27T21:38:46.130Z,2.66
2019-01-27T21:41:14.804Z,3.02
2019-01-27T21:43:43.569Z,2.96
2019-01-27T21:46:12.316Z,2.96
2019-01-27T21:48:40.976Z,2.95
2019-01-27T21:51:09.613Z,2.86
2019-01-27T21:53:38.292Z,2.84
2019-01-27T21:56:07.040Z,2.84
2019-01-27T21:58:35.694Z,2.77
2019-01-27T22:01:04.812Z,2.65
2019-01-27T22:03:33.636Z,2.74
2019-01-27T22:06:02.278Z,2.84
2019-01-27T22:08:31.019Z,2.93
2019-01-27T22:10:59.667Z,2.93
2019-01-27T22:13:28.319Z,2.85
2019-01-27T22:15:56.961Z,2.72
2019-01-27T22:18:25.627Z,2.70
2019-01-27T22:20:54.306Z,2.62
2019-01-27T22:23:22.962Z,2.60
2019-01-27T22:25:51.611Z,2.62
2019-01-27T22:28:21.319Z,2.54
2019-01-27T22:30:49.993Z,2.58
2019-01-27T22:33:18.719Z,2.50
2019-01-27T22:35:47.353Z,2.49
2019-01-27T22:38:16.064Z,2.41
2019-01-27T22:40:45.885Z,2.40
2019-01-27T22:43:14.596Z,2.50
2019-01-27T22:45:43.244Z,2.70
2019-01-27T22:48:11.887Z,2.83
2019-01-27T22:50:40.522Z,2.59
2019-01-27T22:53:09.251Z,2.56
2019-01-27T22:55:37.985Z,2.50
2019-01-27T22:58:06.618Z,2.54
2019-01-27T23:00:54.430Z,2.50
2019-01-27T23:03:24.116Z,2.53
2019-01-27T23:05:52.802Z,2.62
2019-01-27T23:08:21.530Z,2.84
2019-01-27T23:10:50.226Z,2.90
2019-01-27T23:13:18.877Z,2.95
2019-01-27T23:15:47.644Z,3.02
2019-01-27T23:18:16.373Z,3.08
2019-01-27T23:20:45.098Z,3.15
2019-01-27T23:23:13.751Z,3.24
2019-01-27T23:25:43.369Z,3.26
2019-01-27T23:28:12.175Z,3.31
2019-01-27T23:30:40.911Z,3.36
2019-01-27T23:33:09.551Z,3.35
2019-01-27T23:35:38.267Z,3.37
2019-01-27T23:38:06.991Z,3.33
2019-01-27T23:40:35.707Z,3.43
2019-01-27T23:43:04.358Z,3.60
2019-01-27T23:45:33.027Z,3.64
2019-01-27T23:48:01.662Z,3.67
2019-01-27T23:50:30.478Z,3.72
2019-01-27T23:52:59.146Z,3.60
2019-01-27T23:55:27.778Z,3.66
2019-01-27T23:57:56.419Z,3.63
